sensor_id;sensor_type;location;lat;lon;timestamp;pressure;altitude;pressure_sealevel;temperature;humidity
75543;BME280;64129;53.508;10.476;2023-06-14T00:02:21;101402.53;;;14.02;69.12
75543;BME280;64129;53.508;10.476;2023-06-14T00:04:48;101404.13;;;14.10;69.02
75543;BME280;64129;53.508;10.476;2023-06-14T00:07:17;101411.56;;;13.98;69.44
75543;BME280;64129;53.508;10.476;2023-06-14T00:09:45;101408.16;;;13.92;69.75
75543;BME280;64129;53.508;10.476;2023-06-14T00:12:12;101405.69;;;13.84;70.02
75543;BME280;64129;53.508;10.476;2023-06-14T00:14:38;101412.56;;;13.94;69.70
75543;BME280;64129;53.508;10.476;2023-06-14T00:17:05;101413.59;;;13.89;69.99
75543;BME280;64129;53.508;10.476;2023-06-14T00:19:33;101410.47;;;13.71;70.21
75543;BME280;64129;53.508;10.476;2023-06-14T00:22:02;101405.38;;;13.96;69.32
75543;BME280;64129;53.508;10.476;2023-06-14T00:24:30;101411.28;;;13.75;70.35
75543;BME280;64129;53.508;10.476;2023-06-14T00:26:56;101411.84;;;13.86;69.71
75543;BME280;64129;53.508;10.476;2023-06-14T00:29:23;101415.69;;;13.76;70.17
75543;BME280;64129;53.508;10.476;2023-06-14T00:31:50;101411.34;;;13.72;70.43
75543;BME280;64129;53.508;10.476;2023-06-14T00:34:17;101412.84;;;13.82;70.15
75543;BME280;64129;53.508;10.476;2023-06-14T00:36:44;101422.88;;;13.74;70.25
75543;BME280;64129;53.508;10.476;2023-06-14T00:39:13;101422.16;;;13.67;71.02
75543;BME280;64129;53.508;10.476;2023-06-14T00:41:40;101419.47;;;13.67;71.12
75543;BME280;64129;53.508;10.476;2023-06-14T00:44:06;101415.94;;;13.67;71.18
75543;BME280;64129;53.508;10.476;2023-06-14T00:46:33;101421.34;;;13.64;71.60
75543;BME280;64129;53.508;10.476;2023-06-14T00:49:01;101423.22;;;13.60;71.66
75543;BME280;64129;53.508;10.476;2023-06-14T00:51:28;101434.84;;;13.58;72.11
75543;BME280;64129;53.508;10.476;2023-06-14T00:53:54;101435.72;;;13.58;71.67
75543;BME280;64129;53.508;10.476;2023-06-14T00:56:21;101433.38;;;13.45;72.04
75543;BME280;64129;53.508;10.476;2023-06-14T00:58:50;101438.78;;;13.41;72.46
75543;BME280;64129;53.508;10.476;2023-06-14T01:01:17;101441.59;;;13.37;72.39
75543;BME280;64129;53.508;10.476;2023-06-14T01:03:44;101436.09;;;13.43;71.99
75543;BME280;64129;53.508;10.476;2023-06-14T01:06:33;101433.38;;;13.45;72.05
75543;BME280;64129;53.508;10.476;2023-06-14T01:09:26;101436.19;;;13.00;73.84
75543;BME280;64129;53.508;10.476;2023-06-14T01:12:29;101439.47;;;13.11;73.38
75543;BME280;64129;53.508;10.476;2023-06-14T01:14:48;101436.41;;;12.91;74.15
75543;BME280;64129;53.508;10.476;2023-06-14T01:17:18;101434.66;;;12.90;74.05
75543;BME280;64129;53.508;10.476;2023-06-14T01:19:47;101428.97;;;13.05;73.26
75543;BME280;64129;53.508;10.476;2023-06-14T01:22:14;101434.16;;;13.11;73.46
75543;BME280;64129;53.508;10.476;2023-06-14T01:24:41;101436.47;;;12.88;74.29
75543;BME280;64129;53.508;10.476;2023-06-14T01:27:11;101439.63;;;13.05;72.72
75543;BME280;64129;53.508;10.476;2023-06-14T01:29:39;101439.47;;;13.11;72.86
75543;BME280;64129;53.508;10.476;2023-06-14T01:32:14;101449.16;;;13.15;72.84
75543;BME280;64129;53.508;10.476;2023-06-14T01:34:41;101448.72;;;12.96;74.17
75543;BME280;64129;53.508;10.476;2023-06-14T01:37:08;101452.31;;;12.94;73.60
75543;BME280;64129;53.508;10.476;2023-06-14T01:39:35;101452.66;;;12.77;74.44
75543;BME280;64129;53.508;10.476;2023-06-14T01:42:03;101454.31;;;12.82;74.40
75543;BME280;64129;53.508;10.476;2023-06-14T01:44:31;101452.53;;;12.85;73.83
75543;BME280;64129;53.508;10.476;2023-06-14T01:47:00;101452.75;;;12.74;74.67
75543;BME280;64129;53.508;10.476;2023-06-14T01:49:27;101447.63;;;12.63;75.19
75543;BME280;64129;53.508;10.476;2023-06-14T01:51:54;101450.94;;;12.74;75.11
75543;BME280;64129;53.508;10.476;2023-06-14T01:54:20;101446.72;;;12.64;75.75
75543;BME280;64129;53.508;10.476;2023-06-14T01:56:48;101447.56;;;12.66;75.57
75543;BME280;64129;53.508;10.476;2023-06-14T01:59:14;101458.78;;;12.84;74.56
75543;BME280;64129;53.508;10.476;2023-06-14T02:01:42;101452.69;;;12.75;75.10
75543;BME280;64129;53.508;10.476;2023-06-14T02:04:09;101447.44;;;12.72;75.23
75543;BME280;64129;53.508;10.476;2023-06-14T02:06:36;101444.31;;;12.52;76.19
75543;BME280;64129;53.508;10.476;2023-06-14T02:09:03;101448.56;;;12.62;76.50
75543;BME280;64129;53.508;10.476;2023-06-14T02:11:30;101454.72;;;12.64;76.65
75543;BME280;64129;53.508;10.476;2023-06-14T02:13:57;101458.16;;;12.69;75.42
75543;BME280;64129;53.508;10.476;2023-06-14T02:16:26;101452.69;;;12.75;75.85
75543;BME280;64129;53.508;10.476;2023-06-14T02:18:54;101459.03;;;12.70;76.20
75543;BME280;64129;53.508;10.476;2023-06-14T02:21:22;101465.66;;;12.52;77.02
75543;BME280;64129;53.508;10.476;2023-06-14T02:23:49;101455.56;;;12.66;76.36
75543;BME280;64129;53.508;10.476;2023-06-14T02:26:16;101460.06;;;12.64;76.46
75543;BME280;64129;53.508;10.476;2023-06-14T02:28:42;101463.50;;;12.69;76.63
75543;BME280;64129;53.508;10.476;2023-06-14T02:31:09;101463.50;;;12.69;76.62
75543;BME280;64129;53.508;10.476;2023-06-14T02:33:35;101455.91;;;12.51;77.45
75543;BME280;64129;53.508;10.476;2023-06-14T02:36:02;101458.38;;;12.60;77.15
75543;BME280;64129;53.508;10.476;2023-06-14T02:38:29;101464.53;;;12.62;76.33
75543;BME280;64129;53.508;10.476;2023-06-14T02:40:56;101465.50;;;12.58;77.39
75543;BME280;64129;53.508;10.476;2023-06-14T02:43:22;101461.88;;;12.62;76.21
75543;BME280;64129;53.508;10.476;2023-06-14T02:45:49;101459.91;;;12.70;76.18
75543;BME280;64129;53.508;10.476;2023-06-14T02:48:16;101458.28;;;12.65;75.81
75543;BME280;64129;53.508;10.476;2023-06-14T02:50:43;101456.53;;;12.62;76.30
75543;BME280;64129;53.508;10.476;2023-06-14T02:53:09;101465.69;;;12.51;76.86
75543;BME280;64129;53.508;10.476;2023-06-14T02:55:37;101464.22;;;12.33;77.25
75543;BME280;64129;53.508;10.476;2023-06-14T02:58:06;101463.66;;;12.62;76.31
75543;BME280;64129;53.508;10.476;2023-06-14T03:00:33;101466.66;;;12.45;76.80
75543;BME280;64129;53.508;10.476;2023-06-14T03:03:01;101465.22;;;12.27;77.92
75543;BME280;64129;53.508;10.476;2023-06-14T03:05:28;101465.97;;;12.34;77.17
75543;BME280;64129;53.508;10.476;2023-06-14T03:07:55;101467.88;;;12.29;77.66
75543;BME280;64129;53.508;10.476;2023-06-14T03:10:22;101466.91;;;12.33;77.33
75543;BME280;64129;53.508;10.476;2023-06-14T03:12:50;101469.38;;;12.42;77.07
75543;BME280;64129;53.508;10.476;2023-06-14T03:15:19;101465.06;;;12.35;77.18
75543;BME280;64129;53.508;10.476;2023-06-14T03:17:48;101485.47;;;12.36;77.48
75543;BME280;64129;53.508;10.476;2023-06-14T03:20:16;101483.72;;;12.35;77.50
75543;BME280;64129;53.508;10.476;2023-06-14T03:22:42;101490.75;;;12.39;77.07
75543;BME280;64129;53.508;10.476;2023-06-14T03:25:12;101487.41;;;12.28;78.52
75543;BME280;64129;53.508;10.476;2023-06-14T03:27:41;101492.63;;;12.34;78.72
75543;BME280;64129;53.508;10.476;2023-06-14T03:30:08;101487.19;;;12.40;78.13
75543;BME280;64129;53.508;10.476;2023-06-14T03:32:35;101496.13;;;12.36;78.26
75543;BME280;64129;53.508;10.476;2023-06-14T03:35:03;101483.66;;;12.38;77.73
75543;BME280;64129;53.508;10.476;2023-06-14T03:37:30;101489.94;;;12.35;78.60
75543;BME280;64129;53.508;10.476;2023-06-14T03:39:57;101499.59;;;12.41;78.39
75543;BME280;64129;53.508;10.476;2023-06-14T03:42:24;101504.91;;;12.41;78.67
75543;BME280;64129;53.508;10.476;2023-06-14T03:44:52;101497.78;;;12.43;79.01
75543;BME280;64129;53.508;10.476;2023-06-14T03:47:21;101503.13;;;12.41;79.47
75543;BME280;64129;53.508;10.476;2023-06-14T03:49:48;101503.00;;;12.49;79.50
75543;BME280;64129;53.508;10.476;2023-06-14T03:52:14;101505.78;;;12.41;79.91
75543;BME280;64129;53.508;10.476;2023-06-14T03:54:44;101503.94;;;12.45;79.74
75543;BME280;64129;53.508;10.476;2023-06-14T03:57:16;101510.03;;;12.53;80.12
75543;BME280;64129;53.508;10.476;2023-06-14T03:59:45;101516.09;;;12.61;79.80
75543;BME280;64129;53.508;10.476;2023-06-14T04:02:12;101518.94;;;12.52;80.10
75543;BME280;64129;53.508;10.476;2023-06-14T04:04:43;101517.81;;;12.64;79.83
75543;BME280;64129;53.508;10.476;2023-06-14T04:07:12;101527.59;;;12.63;79.58
75543;BME280;64129;53.508;10.476;2023-06-14T04:09:39;101524.81;;;12.69;80.16
75543;BME280;64129;53.508;10.476;2023-06-14T04:12:07;101523.63;;;12.82;79.28
75543;BME280;64129;53.508;10.476;2023-06-14T04:14:39;101523.63;;;12.82;79.92
75543;BME280;64129;53.508;10.476;2023-06-14T04:17:07;101528.97;;;12.82;79.83
75543;BME280;64129;53.508;10.476;2023-06-14T04:19:36;101534.19;;;12.89;80.37
75543;BME280;64129;53.508;10.476;2023-06-14T04:22:03;101536.63;;;12.99;79.20
75543;BME280;64129;53.508;10.476;2023-06-14T04:24:33;101530.69;;;12.87;80.64
75543;BME280;64129;53.508;10.476;2023-06-14T04:27:01;101539.06;;;13.10;79.47
75543;BME280;64129;53.508;10.476;2023-06-14T04:29:29;101532.13;;;13.03;80.39
75543;BME280;64129;53.508;10.476;2023-06-14T04:32:00;101540.72;;;13.17;80.11
75543;BME280;64129;53.508;10.476;2023-06-14T04:34:28;101535.34;;;13.20;79.88
75543;BME280;64129;53.508;10.476;2023-06-14T04:37:00;101538.66;;;13.31;79.75
75543;BME280;64129;53.508;10.476;2023-06-14T04:39:34;101538.88;;;13.22;80.59
75543;BME280;64129;53.508;10.476;2023-06-14T04:42:01;101550.31;;;13.27;80.16
75543;BME280;64129;53.508;10.476;2023-06-14T04:44:30;101540.91;;;13.50;79.58
75543;BME280;64129;53.508;10.476;2023-06-14T04:47:00;101540.63;;;13.62;79.18
75543;BME280;64129;53.508;10.476;2023-06-14T04:49:27;101540.59;;;13.63;79.03
75543;BME280;64129;53.508;10.476;2023-06-14T04:51:56;101536.13;;;13.64;79.03
75543;BME280;64129;53.508;10.476;2023-06-14T04:54:27;101534.16;;;13.72;78.96
75543;BME280;64129;53.508;10.476;2023-06-14T04:56:54;101528.00;;;13.68;79.10
75543;BME280;64129;53.508;10.476;2023-06-14T04:59:24;101532.00;;;13.86;77.98
75543;BME280;64129;53.508;10.476;2023-06-14T05:01:51;101538.34;;;13.82;79.15
75543;BME280;64129;53.508;10.476;2023-06-14T05:04:19;101543.44;;;13.93;76.56
75543;BME280;64129;53.508;10.476;2023-06-14T05:06:47;101541.59;;;13.96;78.18
75543;BME280;64129;53.508;10.476;2023-06-14T05:09:14;101542.25;;;14.04;77.79
75543;BME280;64129;53.508;10.476;2023-06-14T05:11:44;101534.94;;;14.13;78.09
75543;BME280;64129;53.508;10.476;2023-06-14T05:14:11;101536.50;;;14.20;76.78
75543;BME280;64129;53.508;10.476;2023-06-14T05:16:39;101534.03;;;14.12;77.39
75543;BME280;64129;53.508;10.476;2023-06-14T05:19:06;101540.72;;;14.30;76.78
75543;BME280;64129;53.508;10.476;2023-06-14T05:21:33;101545.75;;;14.42;76.12
75543;BME280;64129;53.508;10.476;2023-06-14T05:24:03;101549.19;;;14.47;74.72
75543;BME280;64129;53.508;10.476;2023-06-14T05:26:30;101542.00;;;14.49;76.26
75543;BME280;64129;53.508;10.476;2023-06-14T05:28:57;101555.16;;;14.58;74.37
75543;BME280;64129;53.508;10.476;2023-06-14T05:31:24;101554.03;;;14.67;75.09
75543;BME280;64129;53.508;10.476;2023-06-14T05:33:52;101552.22;;;14.68;74.29
75543;BME280;64129;53.508;10.476;2023-06-14T05:36:19;101560.94;;;14.74;72.77
75543;BME280;64129;53.508;10.476;2023-06-14T05:38:47;101564.97;;;14.89;73.92
75543;BME280;64129;53.508;10.476;2023-06-14T05:41:14;101559.47;;;14.95;73.02
75543;BME280;64129;53.508;10.476;2023-06-14T05:43:41;101560.88;;;15.08;72.60
75543;BME280;64129;53.508;10.476;2023-06-14T05:46:07;101566.72;;;15.21;71.95
75543;BME280;64129;53.508;10.476;2023-06-14T05:48:34;101566.59;;;15.25;70.17
75543;BME280;64129;53.508;10.476;2023-06-14T05:51:01;101562.97;;;15.28;69.15
75543;BME280;64129;53.508;10.476;2023-06-14T05:53:27;101563.38;;;15.44;71.05
75543;BME280;64129;53.508;10.476;2023-06-14T05:55:54;101569.41;;;15.50;71.25
75543;BME280;64129;53.508;10.476;2023-06-14T05:58:21;101562.09;;;16.66;65.57
75543;BME280;64129;53.508;10.476;2023-06-14T06:00:48;101575.69;;;16.07;67.91
75543;BME280;64129;53.508;10.476;2023-06-14T06:03:15;101569.28;;;15.84;67.90
75543;BME280;64129;53.508;10.476;2023-06-14T06:05:41;101570.91;;;15.88;67.58
75543;BME280;64129;53.508;10.476;2023-06-14T06:08:08;101572.31;;;16.02;68.24
75543;BME280;64129;53.508;10.476;2023-06-14T06:10:35;101573.03;;;16.33;67.58
75543;BME280;64129;53.508;10.476;2023-06-14T06:13:01;101573.91;;;16.59;65.56
75543;BME280;64129;53.508;10.476;2023-06-14T06:15:28;101580.09;;;16.61;65.20
75543;BME280;64129;53.508;10.476;2023-06-14T06:17:55;101575.13;;;16.50;65.53
75543;BME280;64129;53.508;10.476;2023-06-14T06:20:23;101576.03;;;16.75;65.35
75543;BME280;64129;53.508;10.476;2023-06-14T06:22:54;101580.53;;;16.75;64.62
75543;BME280;64129;53.508;10.476;2023-06-14T06:25:21;101573.66;;;16.68;62.76
75543;BME280;64129;53.508;10.476;2023-06-14T06:27:48;101576.59;;;16.59;63.01
75543;BME280;64129;53.508;10.476;2023-06-14T06:30:15;101572.25;;;16.81;63.63
75543;BME280;64129;53.508;10.476;2023-06-14T06:32:42;101581.06;;;17.09;61.67
75543;BME280;64129;53.508;10.476;2023-06-14T06:35:09;101568.31;;;16.91;60.47
75543;BME280;64129;53.508;10.476;2023-06-14T06:37:38;101572.66;;;17.42;60.83
75543;BME280;64129;53.508;10.476;2023-06-14T06:40:05;101579.22;;;17.35;60.68
75543;BME280;64129;53.508;10.476;2023-06-14T06:42:32;101574.94;;;17.29;59.39
75543;BME280;64129;53.508;10.476;2023-06-14T06:45:02;101585.28;;;17.40;60.03
75543;BME280;64129;53.508;10.476;2023-06-14T06:47:29;101584.53;;;17.36;60.96
75543;BME280;64129;53.508;10.476;2023-06-14T06:49:55;101590.19;;;17.52;58.93
75543;BME280;64129;53.508;10.476;2023-06-14T06:52:22;101589.91;;;17.36;58.66
75543;BME280;64129;53.508;10.476;2023-06-14T06:54:49;101593.63;;;17.56;60.05
75543;BME280;64129;53.508;10.476;2023-06-14T06:57:17;101597.06;;;17.59;58.05
75543;BME280;64129;53.508;10.476;2023-06-14T06:59:43;101607.38;;;17.71;58.47
75543;BME280;64129;53.508;10.476;2023-06-14T07:02:10;101599.75;;;17.83;57.69
75543;BME280;64129;53.508;10.476;2023-06-14T07:04:36;101602.63;;;18.00;58.56
75543;BME280;64129;53.508;10.476;2023-06-14T07:07:03;101594.81;;;17.94;57.47
75543;BME280;64129;53.508;10.476;2023-06-14T07:09:30;101591.06;;;17.98;56.67
75543;BME280;64129;53.508;10.476;2023-06-14T07:11:56;101597.97;;;18.05;57.40
75543;BME280;64129;53.508;10.476;2023-06-14T07:14:23;101593.47;;;18.48;57.10
75543;BME280;64129;53.508;10.476;2023-06-14T07:16:50;101599.56;;;18.73;56.62
75543;BME280;64129;53.508;10.476;2023-06-14T07:19:17;101605.22;;;18.87;56.90
75543;BME280;64129;53.508;10.476;2023-06-14T07:21:44;101604.28;;;18.88;55.32
75543;BME280;64129;53.508;10.476;2023-06-14T07:24:11;101603.44;;;19.07;55.22
75543;BME280;64129;53.508;10.476;2023-06-14T07:26:38;101601.91;;;19.21;54.66
75543;BME280;64129;53.508;10.476;2023-06-14T07:29:04;101598.88;;;19.48;53.12
75543;BME280;64129;53.508;10.476;2023-06-14T07:31:31;101598.16;;;19.44;54.90
75543;BME280;64129;53.508;10.476;2023-06-14T07:33:58;101593.81;;;19.60;53.69
75543;BME280;64129;53.508;10.476;2023-06-14T07:36:24;101592.78;;;19.82;52.85
75543;BME280;64129;53.508;10.476;2023-06-14T07:38:51;101590.53;;;20.09;51.72
75543;BME280;64129;53.508;10.476;2023-06-14T07:41:18;101591.56;;;20.06;52.17
75543;BME280;64129;53.508;10.476;2023-06-14T07:43:44;101588.38;;;20.17;51.22
75543;BME280;64129;53.508;10.476;2023-06-14T07:46:11;101590.03;;;20.37;50.81
75543;BME280;64129;53.508;10.476;2023-06-14T07:48:38;101599.25;;;20.33;51.14
75543;BME280;64129;53.508;10.476;2023-06-14T07:51:05;101593.13;;;20.48;50.57
75543;BME280;64129;53.508;10.476;2023-06-14T07:53:32;101592.81;;;20.54;50.58
75543;BME280;64129;53.508;10.476;2023-06-14T07:55:58;101588.66;;;20.64;50.80
75543;BME280;64129;53.508;10.476;2023-06-14T07:58:26;101597.16;;;20.91;50.63
75543;BME280;64129;53.508;10.476;2023-06-14T08:00:53;101598.16;;;21.23;49.38
75543;BME280;64129;53.508;10.476;2023-06-14T08:03:19;101591.97;;;21.04;49.01
75543;BME280;64129;53.508;10.476;2023-06-14T08:05:46;101595.63;;;21.03;49.66
75543;BME280;64129;53.508;10.476;2023-06-14T08:08:13;101594.75;;;21.53;47.58
75543;BME280;64129;53.508;10.476;2023-06-14T08:10:40;101594.91;;;21.81;47.23
75543;BME280;64129;53.508;10.476;2023-06-14T08:13:06;101594.22;;;21.93;46.92
75543;BME280;64129;53.508;10.476;2023-06-14T08:15:33;101602.78;;;22.17;45.28
75543;BME280;64129;53.508;10.476;2023-06-14T08:18:00;101597.03;;;21.92;45.88
75543;BME280;64129;53.508;10.476;2023-06-14T08:20:27;101598.25;;;22.18;46.71
75543;BME280;64129;53.508;10.476;2023-06-14T08:22:54;101593.69;;;22.18;45.24
75543;BME280;64129;53.508;10.476;2023-06-14T08:25:23;101594.16;;;22.56;44.55
75543;BME280;64129;53.508;10.476;2023-06-14T08:27:49;101602.00;;;22.61;45.07
75543;BME280;64129;53.508;10.476;2023-06-14T08:30:16;101598.47;;;22.75;44.72
75543;BME280;64129;53.508;10.476;2023-06-14T08:32:44;101598.44;;;22.60;45.15
75543;BME280;64129;53.508;10.476;2023-06-14T08:35:11;101582.78;;;22.65;44.37
75543;BME280;64129;53.508;10.476;2023-06-14T08:37:39;101593.03;;;23.05;43.79
75543;BME280;64129;53.508;10.476;2023-06-14T08:40:20;101596.63;;;23.33;43.29
75543;BME280;64129;53.508;10.476;2023-06-14T08:42:51;101597.03;;;23.56;43.34
75543;BME280;64129;53.508;10.476;2023-06-14T08:47:55;101598.56;;;23.31;42.84
75543;BME280;64129;53.508;10.476;2023-06-14T08:50:27;101595.09;;;23.58;42.57
75543;BME280;64129;53.508;10.476;2023-06-14T08:52:59;101593.19;;;23.60;43.50
75543;BME280;64129;53.508;10.476;2023-06-14T08:55:30;101592.38;;;23.72;42.54
75543;BME280;64129;53.508;10.476;2023-06-14T08:57:58;101594.28;;;23.84;40.70
75543;BME280;64129;53.508;10.476;2023-06-14T09:00:26;101588.75;;;23.86;42.90
75543;BME280;64129;53.508;10.476;2023-06-14T09:02:53;101589.81;;;23.98;42.11
75543;BME280;64129;53.508;10.476;2023-06-14T09:05:24;101592.47;;;24.39;41.70
75543;BME280;64129;53.508;10.476;2023-06-14T09:07:51;101599.13;;;24.47;40.84
75543;BME280;64129;53.508;10.476;2023-06-14T09:10:20;101591.47;;;24.67;40.16
75543;BME280;64129;53.508;10.476;2023-06-14T09:12:47;101596.69;;;24.70;39.02
75543;BME280;64129;53.508;10.476;2023-06-14T09:15:13;101593.84;;;24.98;38.59
75543;BME280;64129;53.508;10.476;2023-06-14T09:17:40;101593.50;;;25.15;38.78
75543;BME280;64129;53.508;10.476;2023-06-14T09:20:08;101593.88;;;24.97;37.73
75543;BME280;64129;53.508;10.476;2023-06-14T09:22:39;101591.59;;;24.78;39.42
75543;BME280;64129;53.508;10.476;2023-06-14T09:25:06;101591.69;;;24.10;40.48
75543;BME280;64129;53.508;10.476;2023-06-14T09:27:33;101592.13;;;24.70;40.16
75543;BME280;64129;53.508;10.476;2023-06-14T09:30:05;101595.44;;;25.13;39.74
75543;BME280;64129;53.508;10.476;2023-06-14T09:32:36;101601.91;;;25.87;38.68
75543;BME280;64129;53.508;10.476;2023-06-14T09:35:05;101577.81;;;25.94;37.18
75543;BME280;64129;53.508;10.476;2023-06-14T09:37:33;101579.06;;;25.77;37.34
75543;BME280;64129;53.508;10.476;2023-06-14T09:40:01;101594.00;;;25.71;36.61
75543;BME280;64129;53.508;10.476;2023-06-14T09:42:29;101588.44;;;25.60;36.95
75543;BME280;64129;53.508;10.476;2023-06-14T09:44:56;101578.53;;;25.59;38.14
75543;BME280;64129;53.508;10.476;2023-06-14T09:47:24;101589.41;;;24.83;39.44
75543;BME280;64129;53.508;10.476;2023-06-14T09:49:51;101583.28;;;25.06;37.96
75543;BME280;64129;53.508;10.476;2023-06-14T09:52:22;101583.16;;;25.08;37.87
75543;BME280;64129;53.508;10.476;2023-06-14T09:54:49;101590.59;;;24.66;38.15
75543;BME280;64129;53.508;10.476;2023-06-14T09:57:20;101577.50;;;25.11;37.67
75543;BME280;64129;53.508;10.476;2023-06-14T09:59:47;101576.47;;;25.75;36.70
75543;BME280;64129;53.508;10.476;2023-06-14T10:02:24;101575.09;;;26.18;36.44
75543;BME280;64129;53.508;10.476;2023-06-14T10:05:04;101567.19;;;26.73;35.14
75543;BME280;64129;53.508;10.476;2023-06-14T10:07:38;101561.38;;;26.43;34.94
75543;BME280;64129;53.508;10.476;2023-06-14T10:10:07;101563.44;;;25.92;34.47
75543;BME280;64129;53.508;10.476;2023-06-14T10:12:34;101572.28;;;25.21;35.92
75543;BME280;64129;53.508;10.476;2023-06-14T10:15:01;101565.53;;;25.13;37.75
75543;BME280;64129;53.508;10.476;2023-06-14T10:17:45;101565.25;;;26.52;35.71
75543;BME280;64129;53.508;10.476;2023-06-14T10:20:26;101557.44;;;27.04;34.34
75543;BME280;64129;53.508;10.476;2023-06-14T10:22:59;101569.78;;;26.16;33.92
75543;BME280;64129;53.508;10.476;2023-06-14T10:25:31;101557.66;;;26.79;33.53
75543;BME280;64129;53.508;10.476;2023-06-14T10:28:17;101568.22;;;26.49;33.19
75543;BME280;64129;53.508;10.476;2023-06-14T10:31:06;101566.63;;;25.86;34.48
75543;BME280;64129;53.508;10.476;2023-06-14T10:33:35;101554.50;;;26.61;33.68
75543;BME280;64129;53.508;10.476;2023-06-14T10:39:05;101555.84;;;25.84;34.71
75543;BME280;64129;53.508;10.476;2023-06-14T10:41:37;101547.88;;;25.32;34.47
75543;BME280;64129;53.508;10.476;2023-06-14T10:46:41;101548.13;;;26.38;33.28
75543;BME280;64129;53.508;10.476;2023-06-14T10:49:12;101542.28;;;26.78;33.01
75543;BME280;64129;53.508;10.476;2023-06-14T10:51:41;101539.63;;;27.34;31.99
75543;BME280;64129;53.508;10.476;2023-06-14T10:54:13;101536.53;;;27.27;31.33
75543;BME280;64129;53.508;10.476;2023-06-14T10:56:50;101522.88;;;28.04;30.58
75543;BME280;64129;53.508;10.476;2023-06-14T10:59:18;101519.38;;;28.13;30.00
75543;BME280;64129;53.508;10.476;2023-06-14T11:04:34;101520.91;;;28.59;30.04
75543;BME280;64129;53.508;10.476;2023-06-14T11:10:38;101524.47;;;27.63;31.60
75543;BME280;64129;53.508;10.476;2023-06-14T11:13:07;101517.75;;;28.43;31.01
75543;BME280;64129;53.508;10.476;2023-06-14T11:15:36;101512.91;;;28.67;29.61
75543;BME280;64129;53.508;10.476;2023-06-14T11:18:07;101505.00;;;28.85;28.79
75543;BME280;64129;53.508;10.476;2023-06-14T11:20:36;101527.41;;;29.40;29.48
75543;BME280;64129;53.508;10.476;2023-06-14T11:23:03;101523.28;;;28.32;30.83
75543;BME280;64129;53.508;10.476;2023-06-14T11:25:30;101528.16;;;27.85;31.91
75543;BME280;64129;53.508;10.476;2023-06-14T11:27:57;101517.16;;;28.07;32.00
75543;BME280;64129;53.508;10.476;2023-06-14T11:30:24;101514.56;;;28.58;32.26
75543;BME280;64129;53.508;10.476;2023-06-14T11:32:53;101512.69;;;29.01;30.97
75543;BME280;64129;53.508;10.476;2023-06-14T11:35:23;101526.13;;;27.98;32.28
75543;BME280;64129;53.508;10.476;2023-06-14T11:37:54;101514.53;;;27.74;33.15
75543;BME280;64129;53.508;10.476;2023-06-14T11:40:25;101514.28;;;28.09;32.40
75543;BME280;64129;53.508;10.476;2023-06-14T11:43:00;101507.53;;;27.92;33.24
75543;BME280;64129;53.508;10.476;2023-06-14T11:45:27;101512.94;;;27.49;34.75
75543;BME280;64129;53.508;10.476;2023-06-14T11:47:58;101511.38;;;27.13;35.21
75543;BME280;64129;53.508;10.476;2023-06-14T11:50:25;101509.31;;;27.82;34.10
75543;BME280;64129;53.508;10.476;2023-06-14T11:52:56;101504.19;;;27.12;32.54
75543;BME280;64129;53.508;10.476;2023-06-14T11:55:23;101501.75;;;26.96;33.62
75543;BME280;64129;53.508;10.476;2023-06-14T11:57:51;101496.94;;;27.33;31.21
75543;BME280;64129;53.508;10.476;2023-06-14T12:00:18;101490.81;;;27.74;31.15
75543;BME280;64129;53.508;10.476;2023-06-14T12:02:54;101489.09;;;28.58;31.14
75543;BME280;64129;53.508;10.476;2023-06-14T12:05:24;101474.53;;;28.78;29.19
75543;BME280;64129;53.508;10.476;2023-06-14T12:07:59;101481.88;;;28.99;30.30
75543;BME280;64129;53.508;10.476;2023-06-14T12:10:27;101484.75;;;28.35;31.86
75543;BME280;64129;53.508;10.476;2023-06-14T12:12:59;101485.91;;;28.32;31.58
75543;BME280;64129;53.508;10.476;2023-06-14T12:15:29;101476.84;;;27.34;31.83
75543;BME280;64129;53.508;10.476;2023-06-14T12:17:57;101480.00;;;27.18;32.92
75543;BME280;64129;53.508;10.476;2023-06-14T12:20:29;101493.28;;;26.54;34.06
75543;BME280;64129;53.508;10.476;2023-06-14T12:23:03;101476.56;;;26.48;33.75
75543;BME280;64129;53.508;10.476;2023-06-14T12:25:34;101478.56;;;25.98;33.80
75543;BME280;64129;53.508;10.476;2023-06-14T12:28:06;101463.06;;;26.11;31.66
75543;BME280;64129;53.508;10.476;2023-06-14T12:30:34;101463.59;;;26.27;32.39
75543;BME280;64129;53.508;10.476;2023-06-14T12:33:04;101470.47;;;26.09;32.45
75543;BME280;64129;53.508;10.476;2023-06-14T12:35:31;101480.13;;;25.29;35.10
75543;BME280;64129;53.508;10.476;2023-06-14T12:37:58;101491.34;;;25.73;35.30
75543;BME280;64129;53.508;10.476;2023-06-14T12:40:25;101482.38;;;26.43;34.56
75543;BME280;64129;53.508;10.476;2023-06-14T12:42:52;101482.38;;;26.54;33.96
75543;BME280;64129;53.508;10.476;2023-06-14T12:45:19;101484.59;;;26.14;34.57
75543;BME280;64129;53.508;10.476;2023-06-14T12:47:46;101496.16;;;25.57;35.12
75543;BME280;64129;53.508;10.476;2023-06-14T12:50:12;101493.88;;;25.88;34.86
75543;BME280;64129;53.508;10.476;2023-06-14T12:52:39;101500.59;;;25.58;35.44
75543;BME280;64129;53.508;10.476;2023-06-14T12:55:06;101489.03;;;26.04;35.00
75543;BME280;64129;53.508;10.476;2023-06-14T12:57:33;101481.44;;;26.89;33.89
75543;BME280;64129;53.508;10.476;2023-06-14T13:00:01;101472.50;;;27.54;32.47
75543;BME280;64129;53.508;10.476;2023-06-14T13:02:28;101474.69;;;28.03;33.11